createdAt,value
2022-12-03T00:01:19.827Z,76.68
2022-12-03T00:03:47.783Z,76.88
2022-12-03T00:06:15.870Z,76.74
2022-12-03T00:08:44.151Z,76.40
2022-12-03T00:11:12.268Z,76.47
2022-12-03T00:13:40.059Z,76.25
2022-12-03T00:16:08.544Z,76.22
2022-12-03T00:18:36.476Z,76.31
2022-12-03T00:21:04.425Z,76.17
2022-12-03T00:23:34.889Z,76.07
2022-12-03T00:26:06.498Z,76.37
2022-12-03T00:28:34.611Z,76.06
2022-12-03T00:31:02.624Z,76.26
2022-12-03T00:33:31.333Z,75.97
2022-12-03T00:35:59.670Z,76.29
2022-12-03T00:38:27.440Z,76.14
2022-12-03T00:40:55.314Z,76.01
2022-12-03T00:43:23.451Z,76.00
2022-12-03T00:45:51.386Z,75.86
2022-12-03T00:48:19.215Z,76.00
2022-12-03T00:50:47.421Z,75.89
2022-12-03T00:53:15.345Z,75.93
2022-12-03T00:55:43.125Z,75.97
2022-12-03T00:58:11.138Z,76.11
2022-12-03T01:00:39.026Z,75.88
2022-12-03T01:03:06.850Z,75.96
2022-12-03T01:05:35.264Z,75.84
2022-12-03T01:08:03.264Z,75.77
2022-12-03T01:10:31.108Z,76.07
2022-12-03T01:12:59.184Z,75.94
2022-12-03T01:15:27.038Z,75.80
2022-12-03T01:17:54.979Z,75.95
2022-12-03T01:20:23.202Z,75.79
2022-12-03T01:22:51.131Z,75.76
2022-12-03T01:25:19.095Z,75.90
2022-12-03T01:27:47.169Z,76.04
2022-12-03T01:30:15.156Z,75.87
2022-12-03T01:32:42.996Z,75.88
2022-12-03T01:35:11.201Z,75.83
2022-12-03T01:37:39.095Z,76.07
2022-12-03T01:40:08.420Z,76.14
2022-12-03T01:42:41.012Z,75.89
2022-12-03T01:45:21.400Z,75.91
2022-12-03T01:47:49.870Z,75.78
2022-12-03T01:50:33.196Z,75.99
2022-12-03T01:53:03.330Z,75.89
2022-12-03T01:55:31.438Z,75.99
2022-12-03T01:58:02.122Z,75.86
2022-12-03T02:00:30.847Z,76.17
2022-12-03T02:03:11.481Z,76.20
2022-12-03T02:05:39.627Z,76.38
2022-12-03T02:08:32.075Z,76.08
2022-12-03T02:11:10.671Z,76.26
2022-12-03T02:13:38.754Z,76.17
2022-12-03T02:16:06.954Z,75.98
2022-12-03T02:18:35.053Z,76.04
2022-12-03T02:21:31.163Z,75.99
2022-12-03T02:24:13.436Z,75.80
2022-12-03T02:26:41.348Z,75.79
2022-12-03T02:29:09.218Z,75.88
2022-12-03T02:31:38.412Z,75.78
2022-12-03T02:34:07.883Z,75.77
2022-12-03T02:36:37.100Z,75.83
2022-12-03T02:39:05.689Z,75.99
2022-12-03T02:41:52.664Z,76.18
2022-12-03T02:44:20.614Z,75.95
2022-12-03T02:46:48.485Z,76.21
2022-12-03T02:49:16.376Z,76.02
2022-12-03T02:51:44.894Z,76.01
2022-12-03T02:54:12.944Z,75.98
2022-12-03T02:56:40.889Z,75.79
2022-12-03T02:59:09.130Z,76.04
2022-12-03T03:01:37.209Z,75.94
2022-12-03T03:04:06.695Z,75.88
2022-12-03T03:06:34.800Z,75.96
2022-12-03T03:09:04.229Z,76.20
2022-12-03T03:11:32.411Z,76.14
2022-12-03T03:14:02.707Z,76.09
2022-12-03T03:16:30.704Z,76.02
2022-12-03T03:18:58.699Z,75.99
2022-12-03T03:21:26.881Z,75.85
2022-12-03T03:23:54.668Z,76.02
2022-12-03T03:26:22.660Z,75.88
2022-12-03T03:28:51.993Z,75.83
2022-12-03T03:31:23.162Z,75.89
2022-12-03T03:33:51.739Z,75.92
2022-12-03T03:36:20.250Z,75.88
2022-12-03T03:38:48.456Z,76.00
2022-12-03T03:41:17.902Z,75.78
2022-12-03T03:43:48.049Z,76.00
2022-12-03T03:46:17.341Z,75.91
2022-12-03T03:48:45.600Z,75.80
2022-12-03T03:51:13.970Z,75.94
2022-12-03T03:53:48.026Z,75.79
2022-12-03T03:56:21.580Z,75.86
2022-12-03T03:58:49.864Z,75.57
2022-12-03T04:01:18.278Z,75.83
2022-12-03T04:03:46.361Z,75.75
2022-12-03T04:06:14.300Z,75.93
2022-12-03T04:08:42.142Z,75.81
2022-12-03T04:11:28.560Z,76.14
2022-12-03T04:13:56.415Z,75.92
2022-12-03T04:16:24.301Z,76.02
2022-12-03T04:18:52.432Z,75.63
2022-12-03T04:21:41.455Z,75.98
2022-12-03T04:24:10.980Z,76.05
2022-12-03T04:26:58.129Z,76.08
2022-12-03T04:29:26.159Z,75.88
2022-12-03T04:32:12.885Z,75.99
2022-12-03T04:34:59.691Z,76.05
2022-12-03T04:37:27.669Z,76.15
2022-12-03T04:39:55.608Z,76.08
2022-12-03T04:42:23.514Z,75.95
2022-12-03T04:44:51.516Z,75.99
2022-12-03T04:47:21.823Z,75.74
2022-12-03T04:49:51.553Z,75.90
2022-12-03T04:52:20.667Z,75.55
2022-12-03T04:54:48.639Z,75.78
2022-12-03T04:57:16.886Z,75.53
2022-12-03T04:59:44.769Z,75.71
2022-12-03T05:02:12.795Z,75.80
2022-12-03T05:04:41.671Z,75.80
2022-12-03T05:07:09.654Z,75.67
2022-12-03T05:09:37.399Z,75.70
2022-12-03T05:12:05.465Z,75.52
2022-12-03T05:14:33.513Z,75.58
2022-12-03T05:17:01.458Z,75.62
2022-12-03T05:19:48.167Z,75.65
2022-12-03T05:22:16.059Z,75.46
2022-12-03T05:24:43.823Z,75.60
2022-12-03T05:27:11.713Z,75.56
2022-12-03T05:29:39.785Z,75.58
2022-12-03T05:32:07.544Z,75.78
2022-12-03T05:34:35.477Z,75.66
2022-12-03T05:37:03.569Z,75.65
2022-12-03T05:39:31.451Z,75.82
2022-12-03T05:42:18.194Z,75.80
2022-12-03T05:44:46.578Z,75.93
2022-12-03T05:47:14.489Z,75.78
2022-12-03T05:49:42.553Z,75.73
2022-12-03T05:52:10.663Z,75.67
2022-12-03T05:54:38.695Z,75.60
2022-12-03T05:57:06.593Z,75.48
2022-12-03T05:59:34.484Z,75.56
2022-12-03T06:02:02.731Z,75.35
2022-12-03T06:04:30.829Z,75.37
2022-12-03T06:06:58.970Z,75.44
2022-12-03T06:09:26.988Z,75.36
2022-12-03T06:11:54.988Z,75.43
2022-12-03T06:14:22.908Z,75.47
2022-12-03T06:16:50.931Z,75.44
2022-12-03T06:19:18.806Z,75.29
2022-12-03T06:21:46.594Z,75.40
2022-12-03T06:24:14.361Z,75.67
2022-12-03T06:26:42.273Z,75.45
2022-12-03T06:29:10.147Z,75.62
2022-12-03T06:31:38.009Z,75.43
2022-12-03T06:34:06.114Z,75.47
2022-12-03T06:36:33.849Z,75.67
2022-12-03T06:39:01.607Z,75.62
2022-12-03T06:41:29.619Z,75.54
2022-12-03T06:43:57.505Z,75.83
2022-12-03T06:46:25.493Z,75.82
2022-12-03T06:48:53.437Z,75.86
2022-12-03T06:51:21.313Z,75.73
2022-12-03T06:53:49.121Z,75.76
2022-12-03T06:56:21.921Z,75.78
2022-12-03T06:58:50.412Z,75.75
2022-12-03T07:01:18.661Z,75.87
2022-12-03T07:03:46.767Z,75.83
2022-12-03T07:06:14.615Z,75.90
2022-12-03T07:08:42.542Z,75.82
2022-12-03T07:11:30.410Z,75.97
2022-12-03T07:14:05.151Z,75.91
2022-12-03T07:16:37.637Z,75.96
2022-12-03T07:19:06.889Z,76.09
2022-12-03T07:21:34.752Z,76.44
2022-12-03T07:24:02.546Z,76.33
2022-12-03T07:26:31.000Z,76.39
2022-12-03T07:28:58.938Z,76.50
2022-12-03T07:31:26.929Z,76.61
2022-12-03T07:33:55.495Z,76.64
2022-12-03T07:36:23.427Z,76.74
2022-12-03T07:38:51.198Z,76.90
2022-12-03T07:41:19.583Z,76.90
2022-12-03T07:43:47.532Z,77.17
2022-12-03T07:46:15.845Z,77.09
2022-12-03T07:48:44.090Z,77.16
2022-12-03T07:51:15.253Z,77.25
2022-12-03T07:53:43.621Z,77.30
2022-12-03T07:56:11.883Z,77.35
2022-12-03T07:58:39.889Z,77.25
2022-12-03T08:01:07.837Z,77.47
2022-12-03T08:03:36.049Z,77.55
2022-12-03T08:06:04.166Z,77.52
2022-12-03T08:08:32.048Z,77.30
2022-12-03T08:11:01.977Z,77.54
2022-12-03T08:13:29.828Z,77.51
2022-12-03T08:16:00.788Z,77.48
2022-12-03T08:18:29.364Z,77.57
2022-12-03T08:20:57.415Z,77.44
2022-12-03T08:23:25.952Z,77.46
2022-12-03T08:25:53.981Z,77.51
2022-12-03T08:28:25.775Z,77.63
2022-12-03T08:31:01.864Z,77.64
2022-12-03T08:33:35.571Z,77.56
2022-12-03T08:36:14.851Z,77.45
2022-12-03T08:38:50.017Z,77.53
2022-12-03T08:41:40.063Z,77.65
2022-12-03T08:44:27.719Z,77.72
2022-12-03T08:47:22.416Z,77.88
2022-12-03T08:50:03.368Z,78.01
2022-12-03T08:52:33.468Z,78.00
2022-12-03T08:55:29.182Z,77.84
2022-12-03T08:57:58.380Z,78.03
2022-12-03T09:00:29.696Z,78.08
2022-12-03T09:03:04.055Z,78.03
2022-12-03T09:05:35.504Z,77.86
2022-12-03T09:08:03.410Z,78.22
2022-12-03T09:10:31.310Z,78.11
2022-12-03T09:12:59.284Z,78.42
2022-12-03T09:15:28.686Z,78.36
2022-12-03T09:17:56.605Z,78.30
2022-12-03T09:20:24.498Z,78.31
2022-12-03T09:22:52.372Z,78.56
2022-12-03T09:25:20.215Z,78.59
2022-12-03T09:27:48.233Z,78.39
2022-12-03T09:30:16.995Z,78.67
2022-12-03T09:32:45.369Z,78.71
2022-12-03T09:35:13.335Z,78.66
2022-12-03T09:37:41.216Z,78.88
2022-12-03T09:40:10.700Z,78.76
2022-12-03T09:42:39.030Z,79.06
2022-12-03T09:45:14.522Z,78.88
2022-12-03T09:47:46.170Z,78.79
2022-12-03T09:50:25.867Z,78.78
2022-12-03T09:53:01.706Z,78.62
2022-12-03T09:55:30.773Z,79.01
2022-12-03T09:57:58.948Z,78.90
2022-12-03T10:00:30.739Z,78.73
2022-12-03T10:03:04.663Z,78.90
2022-12-03T10:05:34.006Z,78.63
2022-12-03T10:08:13.631Z,78.78
2022-12-03T10:10:42.101Z,78.71
2022-12-03T10:13:29.920Z,78.86
2022-12-03T10:16:02.706Z,78.59
2022-12-03T10:18:41.591Z,78.62
2022-12-03T10:21:35.110Z,78.73
2022-12-03T10:24:18.102Z,78.64
2022-12-03T10:26:47.550Z,78.55
2022-12-03T10:29:29.645Z,78.75
2022-12-03T10:32:10.288Z,78.72
2022-12-03T10:34:41.600Z,78.66
2022-12-03T10:37:17.222Z,78.47
2022-12-03T10:40:01.899Z,78.73
2022-12-03T10:42:35.285Z,78.45
2022-12-03T10:45:15.706Z,78.59
2022-12-03T10:48:01.448Z,78.63
2022-12-03T10:50:31.189Z,78.69
2022-12-03T10:52:59.406Z,78.89
2022-12-03T10:55:29.778Z,78.95
2022-12-03T10:57:57.844Z,78.82
2022-12-03T11:00:26.484Z,79.15
2022-12-03T11:02:56.999Z,78.93
2022-12-03T11:05:30.420Z,78.96
2022-12-03T11:07:58.295Z,78.81
2022-12-03T11:10:26.578Z,79.07
2022-12-03T11:13:32.379Z,78.75
2022-12-03T11:16:09.518Z,78.73
2022-12-03T11:18:37.406Z,78.72
2022-12-03T11:21:12.692Z,78.59
2022-12-03T11:24:00.876Z,78.89
2022-12-03T11:26:28.839Z,78.74
2022-12-03T11:28:58.458Z,78.75
2022-12-03T11:31:48.555Z,78.81
2022-12-03T11:34:22.707Z,78.66
2022-12-03T11:37:12.516Z,78.66
2022-12-03T11:39:49.704Z,78.62
2022-12-03T11:42:26.837Z,78.69
2022-12-03T11:45:04.244Z,78.89
2022-12-03T11:47:47.968Z,78.82
2022-12-03T11:50:50.309Z,78.89
2022-12-03T11:53:26.989Z,78.80
2022-12-03T11:56:08.627Z,78.70
2022-12-03T11:58:39.170Z,78.73
2022-12-03T12:01:09.018Z,78.84
2022-12-03T12:03:43.615Z,79.01
2022-12-03T12:06:14.340Z,78.88
2022-12-03T12:09:04.122Z,78.87
2022-12-03T12:11:34.771Z,78.81
2022-12-03T12:14:09.923Z,78.87
2022-12-03T12:16:53.074Z,78.73
2022-12-03T12:19:41.477Z,78.84
2022-12-03T12:22:25.156Z,78.72
2022-12-03T12:25:01.392Z,78.76
2022-12-03T12:27:33.407Z,78.76
2022-12-03T12:30:15.098Z,78.89
2022-12-03T12:32:50.542Z,78.71
2022-12-03T12:35:22.860Z,78.68
2022-12-03T12:38:00.073Z,78.67
2022-12-03T12:40:33.760Z,78.64
2022-12-03T12:43:23.981Z,78.59
2022-12-03T12:46:13.687Z,78.62
2022-12-03T12:48:48.239Z,78.65
2022-12-03T12:51:21.098Z,78.56
2022-12-03T12:53:50.252Z,78.62
2022-12-03T12:56:42.608Z,78.67
2022-12-03T12:59:10.609Z,78.77
2022-12-03T13:01:40.300Z,78.82
2022-12-03T13:04:14.172Z,78.68
2022-12-03T13:06:42.591Z,78.79
2022-12-03T13:09:30.206Z,78.81
2022-12-03T13:12:03.114Z,78.75
2022-12-03T13:14:35.325Z,78.84
2022-12-03T13:17:19.668Z,78.68
2022-12-03T13:19:53.887Z,78.77
2022-12-03T13:22:26.329Z,78.89
2022-12-03T13:24:57.463Z,78.73
2022-12-03T13:27:31.863Z,78.84
2022-12-03T13:30:03.989Z,78.78
2022-12-03T13:32:34.674Z,78.70
2022-12-03T13:35:03.498Z,78.78
2022-12-03T13:37:31.753Z,78.91
2022-12-03T13:40:26.519Z,78.81
2022-12-03T13:42:55.293Z,78.92
2022-12-03T13:45:24.972Z,79.06
2022-12-03T13:47:58.886Z,79.14
2022-12-03T13:50:42.045Z,78.95
2022-12-03T13:53:21.798Z,79.02
2022-12-03T13:55:58.064Z,78.99
2022-12-03T13:58:26.294Z,78.96
2022-12-03T14:00:54.517Z,78.78
2022-12-03T14:03:23.488Z,78.99
2022-12-03T14:05:51.383Z,78.96
2022-12-03T14:08:19.546Z,78.91
2022-12-03T14:10:52.107Z,78.98
2022-12-03T14:13:22.355Z,79.02
2022-12-03T14:15:50.197Z,79.21
2022-12-03T14:18:18.053Z,79.30
2022-12-03T14:20:46.490Z,79.24
2022-12-03T14:23:17.313Z,79.25
2022-12-03T14:25:45.234Z,79.44
2022-12-03T14:28:13.426Z,79.62
2022-12-03T14:30:41.258Z,79.63
2022-12-03T14:33:09.141Z,79.59
2022-12-03T14:35:37.437Z,79.71
2022-12-03T14:38:05.289Z,79.54
2022-12-03T14:40:33.085Z,79.76
2022-12-03T14:43:01.263Z,79.66
2022-12-03T14:45:30.104Z,79.84
2022-12-03T14:47:58.149Z,79.97
2022-12-03T14:50:27.044Z,80.02
2022-12-03T14:52:54.854Z,80.15
2022-12-03T14:55:22.715Z,80.30
2022-12-03T14:57:51.184Z,80.09
2022-12-03T15:00:19.499Z,80.28
2022-12-03T15:02:47.523Z,80.04
2022-12-03T15:05:15.733Z,80.32
2022-12-03T15:07:43.681Z,80.14
2022-12-03T15:10:11.826Z,80.14
2022-12-03T15:12:39.830Z,80.20
2022-12-03T15:15:08.174Z,80.25
2022-12-03T15:17:35.926Z,80.59
2022-12-03T15:20:04.283Z,80.31
2022-12-03T15:22:32.328Z,80.35
2022-12-03T15:25:01.996Z,80.35
2022-12-03T15:27:30.202Z,80.40
2022-12-03T15:29:58.166Z,80.50
2022-12-03T15:32:25.962Z,80.46
2022-12-03T15:34:54.058Z,80.58
2022-12-03T15:37:21.995Z,80.59
2022-12-03T15:39:49.808Z,80.67
2022-12-03T15:42:17.874Z,80.62
2022-12-03T15:44:47.270Z,80.77
2022-12-03T15:47:15.218Z,80.59
2022-12-03T15:49:43.278Z,80.60
2022-12-03T15:52:13.452Z,80.94
2022-12-03T15:54:41.499Z,80.61
2022-12-03T15:57:10.014Z,80.76
2022-12-03T15:59:39.011Z,80.63
2022-12-03T16:02:07.848Z,80.65
2022-12-03T16:04:36.908Z,80.66
2022-12-03T16:07:04.786Z,80.85
2022-12-03T16:09:32.742Z,80.81
2022-12-03T16:12:00.799Z,80.92
2022-12-03T16:14:28.682Z,80.92
2022-12-03T16:16:58.919Z,81.01
2022-12-03T16:19:27.034Z,81.15
2022-12-03T16:21:54.886Z,81.09
2022-12-03T16:24:22.953Z,81.12
2022-12-03T16:26:51.027Z,81.17
2022-12-03T16:29:18.870Z,81.15
2022-12-03T16:31:46.888Z,81.20
2022-12-03T16:34:14.890Z,81.08
2022-12-03T16:36:42.768Z,81.17
2022-12-03T16:39:11.047Z,81.13
2022-12-03T16:41:39.753Z,81.34
2022-12-03T16:44:07.632Z,81.11
2022-12-03T16:46:35.677Z,81.23
2022-12-03T16:49:04.194Z,81.44
2022-12-03T16:51:32.040Z,81.46
2022-12-03T16:54:02.160Z,81.68
2022-12-03T16:56:30.190Z,81.59
2022-12-03T16:58:57.982Z,81.58
2022-12-03T17:01:25.950Z,81.42
2022-12-03T17:03:54.770Z,81.45
2022-12-03T17:06:22.616Z,81.56
2022-12-03T17:08:52.789Z,81.56
2022-12-03T17:11:20.868Z,81.55
2022-12-03T17:13:48.656Z,81.56
2022-12-03T17:16:16.777Z,81.60
2022-12-03T17:18:44.831Z,81.48
2022-12-03T17:21:12.856Z,81.50
2022-12-03T17:23:40.751Z,81.48
2022-12-03T17:26:08.719Z,81.47
2022-12-03T17:28:36.519Z,81.54
2022-12-03T17:31:04.577Z,81.48
2022-12-03T17:33:32.999Z,81.72
2022-12-03T17:36:01.736Z,81.66
2022-12-03T17:38:32.761Z,81.84
2022-12-03T17:41:05.691Z,81.86
2022-12-03T17:43:33.540Z,81.95
2022-12-03T17:46:01.594Z,82.04
2022-12-03T17:48:31.421Z,82.02
2022-12-03T17:50:59.641Z,82.22
2022-12-03T17:53:29.772Z,82.25
2022-12-03T17:55:57.895Z,82.44
2022-12-03T17:58:26.963Z,82.18
2022-12-03T18:01:00.273Z,82.25
2022-12-03T18:03:31.285Z,82.60
2022-12-03T18:05:59.337Z,82.48
2022-12-03T18:08:27.288Z,82.76
2022-12-03T18:10:55.454Z,82.90
2022-12-03T18:13:23.217Z,83.02
2022-12-03T18:15:51.109Z,82.87
2022-12-03T18:18:19.371Z,82.95
2022-12-03T18:20:47.358Z,83.03
2022-12-03T18:23:15.308Z,82.92
2022-12-03T18:25:43.533Z,82.81
2022-12-03T18:28:11.358Z,82.90
2022-12-03T18:30:39.230Z,82.92
2022-12-03T18:33:07.493Z,82.89
2022-12-03T18:35:35.427Z,82.74
2022-12-03T18:38:03.275Z,82.74
2022-12-03T18:40:31.530Z,82.76
2022-12-03T18:42:59.932Z,82.86
2022-12-03T18:45:28.805Z,82.82
2022-12-03T18:47:57.081Z,82.86
2022-12-03T18:50:25.128Z,82.80
2022-12-03T18:52:52.945Z,82.80
2022-12-03T18:55:22.046Z,83.01
2022-12-03T18:57:49.851Z,82.71
2022-12-03T19:00:17.869Z,82.84
2022-12-03T19:05:35.287Z,82.80
2022-12-03T19:08:04.081Z,82.89
2022-12-03T19:10:32.048Z,82.70
2022-12-03T19:12:59.919Z,82.69
2022-12-03T19:15:28.039Z,82.71
2022-12-03T19:17:55.823Z,82.85
2022-12-03T19:20:23.601Z,82.81
2022-12-03T19:22:51.990Z,82.56
2022-12-03T19:25:19.770Z,82.63
2022-12-03T19:27:50.143Z,82.72
2022-12-03T19:30:18.319Z,82.81
2022-12-03T19:32:46.201Z,82.81
2022-12-03T19:35:14.078Z,82.84
2022-12-03T19:37:44.390Z,82.93
2022-12-03T19:40:12.408Z,82.85
2022-12-03T19:42:40.432Z,82.73
2022-12-03T19:45:09.364Z,82.63
2022-12-03T19:47:37.432Z,82.57
2022-12-03T19:50:06.403Z,82.61
2022-12-03T19:52:36.762Z,82.72
2022-12-03T19:55:05.251Z,82.64
2022-12-03T19:57:33.071Z,82.47
2022-12-03T20:00:01.435Z,82.34
2022-12-03T20:02:29.374Z,82.40
2022-12-03T20:04:57.390Z,82.31
2022-12-03T20:07:25.722Z,82.38
2022-12-03T20:09:54.111Z,82.54
2022-12-03T20:12:22.099Z,82.65
2022-12-03T20:14:51.843Z,82.48
2022-12-03T20:17:19.952Z,82.57
2022-12-03T20:19:48.061Z,82.31
2022-12-03T20:22:16.231Z,82.44
2022-12-03T20:24:44.002Z,82.35
2022-12-03T20:27:11.875Z,82.33
2022-12-03T20:29:40.313Z,82.31
2022-12-03T20:32:08.255Z,82.26
2022-12-03T20:34:36.359Z,82.42
2022-12-03T20:37:07.468Z,82.23
2022-12-03T20:39:35.236Z,82.19
2022-12-03T20:42:03.053Z,82.15
2022-12-03T20:44:31.247Z,82.26
2022-12-03T20:46:59.092Z,82.37
2022-12-03T20:49:26.865Z,82.36
2022-12-03T20:51:57.064Z,82.23
2022-12-03T20:54:27.734Z,82.15
2022-12-03T20:56:55.681Z,82.03
2022-12-03T20:59:23.753Z,82.14
2022-12-03T21:01:51.642Z,82.15
2022-12-03T21:04:19.645Z,82.41
2022-12-03T21:06:47.825Z,82.53
2022-12-03T21:09:15.672Z,82.45
2022-12-03T21:11:43.696Z,82.53
2022-12-03T21:14:11.890Z,82.66
2022-12-03T21:19:30.447Z,82.61
2022-12-03T21:21:58.341Z,82.65
2022-12-03T21:24:26.659Z,82.51
2022-12-03T21:26:54.876Z,82.72
2022-12-03T21:29:23.031Z,82.62
2022-12-03T21:31:51.253Z,82.77
2022-12-03T21:34:19.664Z,82.61
2022-12-03T21:36:47.535Z,82.82
2022-12-03T21:39:15.462Z,82.76
2022-12-03T21:42:34.512Z,82.85
2022-12-03T21:44:31.710Z,82.89
2022-12-03T21:47:10.664Z,82.85
2022-12-03T21:49:41.868Z,83.09
2022-12-03T21:52:10.805Z,83.25
2022-12-03T21:54:39.114Z,83.28
2022-12-03T21:57:07.096Z,83.44
2022-12-03T21:59:35.676Z,83.47
2022-12-03T22:02:04.374Z,83.54
2022-12-03T22:04:32.598Z,83.77
2022-12-03T22:07:00.873Z,83.70
2022-12-03T22:09:28.708Z,83.81
2022-12-03T22:11:59.311Z,83.90
2022-12-03T22:14:28.316Z,83.99
2022-12-03T22:16:56.255Z,83.86
2022-12-03T22:19:25.805Z,83.90
2022-12-03T22:21:53.901Z,83.90
2022-12-03T22:24:23.858Z,84.05
2022-12-03T22:26:53.566Z,83.92
2022-12-03T22:29:21.837Z,83.97
2022-12-03T22:31:49.674Z,84.12
2022-12-03T22:34:17.473Z,84.21
2022-12-03T22:36:45.708Z,84.22
2022-12-03T22:39:13.485Z,84.09
2022-12-03T22:41:41.298Z,84.05
2022-12-03T22:44:09.423Z,83.90
2022-12-03T22:46:37.325Z,84.18
2022-12-03T22:49:07.357Z,84.10
2022-12-03T22:51:36.075Z,84.20
2022-12-03T22:54:04.374Z,84.10
2022-12-03T22:56:33.017Z,84.34
2022-12-03T22:59:01.227Z,84.33
2022-12-03T23:01:32.518Z,84.35
2022-12-03T23:04:01.094Z,84.44
2022-12-03T23:06:30.789Z,84.47
2022-12-03T23:08:59.445Z,84.69
2022-12-03T23:11:27.943Z,84.59
2022-12-03T23:13:59.173Z,84.68
2022-12-03T23:16:30.777Z,84.73
2022-12-03T23:19:00.519Z,84.54
2022-12-03T23:21:31.737Z,84.63
2022-12-03T23:24:01.569Z,84.71
2022-12-03T23:26:29.793Z,84.55
2022-12-03T23:28:57.558Z,84.73
2022-12-03T23:31:28.891Z,84.93
2022-12-03T23:33:57.805Z,84.86
2022-12-03T23:36:28.263Z,84.85
2022-12-03T23:38:56.230Z,84.88
2022-12-03T23:41:25.148Z,84.88
2022-12-03T23:43:53.059Z,84.76
2022-12-03T23:46:23.706Z,84.87
2022-12-03T23:48:51.970Z,84.92
2022-12-03T23:51:26.852Z,85.07
2022-12-03T23:53:55.930Z,85.16
2022-12-03T23:56:27.076Z,85.11
2022-12-03T23:58:56.175Z,85.23
